Time;durP1;ratioP1;P1;durP2;ratioP2;P2;SDS_P1;SDS_P2;PMS_P1;PMS_P2;Temp;Humidity;BMP_temperature;BMP_pressure;BME280_temperature;BME280_humidity;BME280_pressure;Samples;Min_cycle;Max_cycle;Signal;HPM_P1;HPM_P2
2021/05/29 00:00:07;;;;;;;0.80;0.63;;;;;;;;;;5076914;28;20405;-73
2021/05/29 00:02:33;;;;;;;4.33;0.97;;;;;;;;;;5078484;28;20481;-72
2021/05/29 00:04:59;;;;;;;2.70;1.13;;;;;;;;;;5076141;28;20412;-73
2021/05/29 00:07:25;;;;;;;2.10;1.83;;;;;;;;;;5077847;28;20442;-72
2021/05/29 00:09:51;;;;;;;3.37;1.30;;;;;;;;;;5076589;28;20380;-72
2021/05/29 00:12:17;;;;;;;6.00;1.07;;;;;;;;;;5059265;28;20433;-73
2021/05/29 00:14:47;;;;;;;1.00;0.90;;;;;;;;;;5077398;28;20421;-72
2021/05/29 00:17:13;;;;;;;2.50;1.07;;;;;;;;;;5077817;28;20936;-72
2021/05/29 00:19:39;;;;;;;1.40;1.20;;;;;;;;;;5078557;28;20785;-72
2021/05/29 00:22:04;;;;;;;1.90;1.00;;;;;;;;;;5079903;28;20409;-73
2021/05/29 00:24:30;;;;;;;1.73;1.60;;;;;;;;;;5079863;28;20435;-72
2021/05/29 00:26:56;;;;;;;2.27;1.40;;;;;;;;;;5079172;28;20855;-72
2021/05/29 00:29:22;;;;;;;3.57;1.90;;;;;;;;;;5078032;28;20921;-72
2021/05/29 00:31:48;;;;;;;3.17;1.70;;;;;;;;;;5078757;28;20465;-73
2021/05/29 00:34:14;;;;;;;3.00;1.60;;;;;;;;;;5079029;28;20409;-72
2021/05/29 00:36:40;;;;;;;3.23;1.50;;;;;;;;;;5078305;28;20459;-73
2021/05/29 00:39:07;;;;;;;1.60;1.20;;;;;;;;;;5078580;28;20445;-72
2021/05/29 00:41:33;;;;;;;1.40;0.87;;;;;;;;;;5079026;28;20951;-73
2021/05/29 00:43:59;;;;;;;1.53;0.83;;;;;;;;;;5079139;28;20442;-73
2021/05/29 00:46:25;;;;;;;2.43;1.03;;;;;;;;;;5079875;28;20380;-72
2021/05/29 00:48:51;;;;;;;1.00;0.80;;;;;;;;;;5079956;28;20464;-73
2021/05/29 00:51:17;;;;;;;2.47;1.20;;;;;;;;;;5079502;28;20419;-73
2021/05/29 00:53:45;;;;;;;2.93;1.70;;;;;;;;;;5062312;28;20480;-73
2021/05/29 00:56:11;;;;;;;2.13;1.47;;;;;;;;;;5082380;28;20460;-73
2021/05/29 00:58:39;;;;;;;3.83;1.73;;;;;;;;;;5083023;28;20406;-73
2021/05/29 01:01:05;;;;;;;3.97;1.70;;;;;;;;;;5086651;28;20646;-73
2021/05/29 01:03:35;;;;;;;2.53;2.00;;;;;;;;;;5080929;28;20377;-72
2021/05/29 01:06:01;;;;;;;2.70;1.30;;;;;;;;;;5078290;28;20451;-72
2021/05/29 01:08:27;;;;;;;2.70;1.23;;;;;;;;;;5064998;28;20446;-73
2021/05/29 01:10:54;;;;;;;1.80;1.70;;;;;;;;;;5075970;28;20406;-73
2021/05/29 01:13:25;;;;;;;2.10;1.23;;;;;;;;;;5076436;28;20463;-72
2021/05/29 01:15:53;;;;;;;5.80;1.47;;;;;;;;;;5076308;28;20422;-72
2021/05/29 01:18:19;;;;;;;2.13;1.13;;;;;;;;;;5058905;28;20396;-72
2021/05/29 01:20:46;;;;;;;2.50;2.13;;;;;;;;;;5075044;28;20406;-72
2021/05/29 01:23:13;;;;;;;1.40;1.07;;;;;;;;;;5075895;28;20720;-71
2021/05/29 01:25:40;;;;;;;4.27;1.67;;;;;;;;;;5076190;28;20407;-73
2021/05/29 01:28:07;;;;;;;0.80;0.60;;;;;;;;;;5076039;28;20453;-72
2021/05/29 01:30:36;;;;;;;6.33;3.10;;;;;;;;;;5074790;28;20401;-72
2021/05/29 01:33:03;;;;;;;2.67;2.10;;;;;;;;;;5076113;28;20443;-71
2021/05/29 01:35:30;;;;;;;2.60;1.30;;;;;;;;;;5040914;28;20418;-72
2021/05/29 01:37:56;;;;;;;1.40;1.30;;;;;;;;;;5075961;28;20493;-73
2021/05/29 01:40:22;;;;;;;7.33;3.03;;;;;;;;;;5074993;28;20436;-72
2021/05/29 01:42:48;;;;;;;4.03;1.00;;;;;;;;;;5075505;28;20393;-71
2021/05/29 01:45:15;;;;;;;2.03;1.83;;;;;;;;;;5076273;28;20414;-71
2021/05/29 01:47:44;;;;;;;3.00;1.37;;;;;;;;;;5075854;28;20420;-71
2021/05/29 01:50:14;;;;;;;1.80;1.67;;;;;;;;;;5077476;28;20387;-70
2021/05/29 01:52:43;;;;;;;5.50;2.37;;;;;;;;;;5079813;28;20447;-69
2021/05/29 01:55:10;;;;;;;3.33;1.80;;;;;;;;;;5079147;28;20405;-71
2021/05/29 01:57:36;;;;;;;1.47;1.30;;;;;;;;;;5080005;28;20373;-71
2021/05/29 02:00:01;;;;;;;2.93;1.93;;;;;;;;;;5078595;28;20376;-71
2021/05/29 02:02:27;;;;;;;6.00;2.43;;;;;;;;;;5080276;28;20415;-71
2021/05/29 02:04:53;;;;;;;6.33;3.13;;;;;;;;;;5079118;28;20411;-71
2021/05/29 02:07:19;;;;;;;2.80;1.50;;;;;;;;;;5079223;28;20588;-73
2021/05/29 02:09:45;;;;;;;9.37;2.20;;;;;;;;;;5078533;28;20394;-74
2021/05/29 02:12:11;;;;;;;3.87;2.37;;;;;;;;;;5078484;28;20421;-72
2021/05/29 02:14:37;;;;;;;4.00;1.63;;;;;;;;;;5078378;28;20428;-71
2021/05/29 02:17:03;;;;;;;2.33;1.87;;;;;;;;;;5079589;28;20936;-74
2021/05/29 02:19:29;;;;;;;1.20;1.10;;;;;;;;;;5078334;28;20398;-73
2021/05/29 02:21:55;;;;;;;3.47;1.30;;;;;;;;;;5074874;28;20401;-72
2021/05/29 02:24:21;;;;;;;1.93;1.53;;;;;;;;;;5075252;28;20479;-71
2021/05/29 02:26:47;;;;;;;1.30;0.83;;;;;;;;;;5075506;28;20558;-71
2021/05/29 02:29:13;;;;;;;2.03;1.90;;;;;;;;;;5074568;28;20413;-71
2021/05/29 02:31:39;;;;;;;3.10;1.40;;;;;;;;;;5075257;28;20779;-71
2021/05/29 02:34:05;;;;;;;6.47;1.73;;;;;;;;;;5075900;28;20858;-72
2021/05/29 02:36:30;;;;;;;0.90;0.80;;;;;;;;;;5076851;28;20488;-71
2021/05/29 02:38:56;;;;;;;3.20;1.30;;;;;;;;;;5076429;28;20402;-72
2021/05/29 02:41:22;;;;;;;2.50;2.30;;;;;;;;;;5078523;28;20413;-72
2021/05/29 02:43:48;;;;;;;3.37;3.07;;;;;;;;;;5079304;28;20398;-71
2021/05/29 02:46:14;;;;;;;8.10;2.10;;;;;;;;;;5061038;28;20376;-72
2021/05/29 02:48:40;;;;;;;2.70;1.60;;;;;;;;;;5079096;28;20544;-72
2021/05/29 02:51:06;;;;;;;3.07;2.07;;;;;;;;;;5078570;28;20418;-73
2021/05/29 02:53:32;;;;;;;2.27;1.50;;;;;;;;;;5079163;28;20379;-71
2021/05/29 02:55:58;;;;;;;3.30;1.90;;;;;;;;;;5078536;28;20402;-73
2021/05/29 02:58:24;;;;;;;2.43;2.23;;;;;;;;;;5079218;28;20449;-72
2021/05/29 03:00:50;;;;;;;1.53;1.30;;;;;;;;;;5077462;28;20870;-72
2021/05/29 03:03:17;;;;;;;1.57;1.20;;;;;;;;;;5079628;28;20398;-72
2021/05/29 03:05:44;;;;;;;2.30;1.17;;;;;;;;;;5076958;28;20744;-72
2021/05/29 03:08:11;;;;;;;1.80;1.53;;;;;;;;;;5078609;28;20473;-72
2021/05/29 03:10:37;;;;;;;2.33;1.43;;;;;;;;;;5077344;28;20455;-71
2021/05/29 03:13:06;;;;;;;2.13;1.73;;;;;;;;;;5078088;28;20484;-72
2021/05/29 03:15:32;;;;;;;1.77;1.67;;;;;;;;;;5078502;28;20421;-72
2021/05/29 03:17:58;;;;;;;3.83;1.20;;;;;;;;;;5078919;28;20904;-72
2021/05/29 03:20:26;;;;;;;3.30;1.90;;;;;;;;;;5077777;28;20409;-71
2021/05/29 03:22:52;;;;;;;1.40;1.20;;;;;;;;;;5060688;28;20758;-72
2021/05/29 03:25:18;;;;;;;2.10;2.00;;;;;;;;;;5080104;28;20406;-71
2021/05/29 03:27:46;;;;;;;1.87;1.03;;;;;;;;;;5077907;28;20423;-71
2021/05/29 03:30:14;;;;;;;2.60;1.90;;;;;;;;;;5077449;28;20395;-72
2021/05/29 03:32:40;;;;;;;1.20;0.80;;;;;;;;;;5077707;28;20395;-71
2021/05/29 03:35:07;;;;;;;1.70;1.00;;;;;;;;;;5077808;28;20421;-72
2021/05/29 03:37:34;;;;;;;3.70;2.83;;;;;;;;;;5077878;28;20388;-71
2021/05/29 03:40:00;;;;;;;2.70;1.10;;;;;;;;;;5077113;28;20547;-71
2021/05/29 03:42:26;;;;;;;1.93;1.40;;;;;;;;;;5077609;28;20475;-72
2021/05/29 03:44:52;;;;;;;2.63;1.40;;;;;;;;;;5078496;28;20877;-72
2021/05/29 03:47:18;;;;;;;2.17;1.27;;;;;;;;;;5078371;28;20447;-71
2021/05/29 03:49:44;;;;;;;2.60;1.20;;;;;;;;;;5058896;28;20497;-71
2021/05/29 03:52:10;;;;;;;2.77;2.37;;;;;;;;;;5077676;28;20422;-72
2021/05/29 03:54:36;;;;;;;2.20;1.10;;;;;;;;;;5077882;28;20394;-71
2021/05/29 03:57:03;;;;;;;1.70;1.60;;;;;;;;;;5077594;28;20965;-71
2021/05/29 03:59:28;;;;;;;3.17;2.03;;;;;;;;;;5077177;28;20377;-72
2021/05/29 04:01:55;;;;;;;1.20;1.10;;;;;;;;;;5084576;22;20544;-67
2021/05/29 04:04:21;;;;;;;1.53;1.43;;;;;;;;;;5051677;28;20374;-68
2021/05/29 04:06:47;;;;;;;1.63;1.10;;;;;;;;;;5052962;28;20449;-67
2021/05/29 04:09:13;;;;;;;3.23;1.50;;;;;;;;;;5052459;28;20541;-68
2021/05/29 04:11:39;;;;;;;1.80;1.27;;;;;;;;;;5052704;28;20808;-70
2021/05/29 04:14:05;;;;;;;1.73;1.40;;;;;;;;;;5053207;28;20535;-68
2021/05/29 04:16:32;;;;;;;3.23;1.70;;;;;;;;;;5053432;28;20457;-68
2021/05/29 04:18:58;;;;;;;4.20;2.47;;;;;;;;;;5052857;28;20414;-69
2021/05/29 04:21:24;;;;;;;5.60;2.17;;;;;;;;;;5052307;28;20770;-69
2021/05/29 04:23:50;;;;;;;2.60;2.40;;;;;;;;;;5052752;28;20417;-69
2021/05/29 04:26:16;;;;;;;3.00;2.30;;;;;;;;;;5052654;28;20407;-68
2021/05/29 04:28:42;;;;;;;3.90;1.00;;;;;;;;;;5052693;28;20817;-69
2021/05/29 04:31:08;;;;;;;2.20;2.00;;;;;;;;;;5051994;28;20401;-69
2021/05/29 04:33:34;;;;;;;5.53;1.57;;;;;;;;;;5052571;28;20399;-70
2021/05/29 04:36:00;;;;;;;1.47;1.30;;;;;;;;;;5035064;28;20385;-70
2021/05/29 04:38:26;;;;;;;11.10;4.83;;;;;;;;;;5052915;28;20837;-69
2021/05/29 04:40:53;;;;;;;1.97;1.60;;;;;;;;;;5051936;28;20751;-70
2021/05/29 04:43:19;;;;;;;1.87;1.73;;;;;;;;;;5034376;28;20470;-70
2021/05/29 04:45:45;;;;;;;2.90;1.80;;;;;;;;;;5052576;28;20411;-70
2021/05/29 04:48:11;;;;;;;2.90;1.90;;;;;;;;;;5058559;28;20460;-69
2021/05/29 04:53:22;;;;;;;4.43;2.40;;;;;;;;;;5072671;28;20392;-70
2021/05/29 04:55:48;;;;;;;5.03;1.93;;;;;;;;;;5072800;28;20406;-70
2021/05/29 04:58:14;;;;;;;4.77;2.23;;;;;;;;;;5071911;28;20774;-69
2021/05/29 05:00:40;;;;;;;5.87;3.57;;;;;;;;;;5071308;28;20822;-69
2021/05/29 05:03:06;;;;;;;2.93;1.10;;;;;;;;;;5053438;28;21042;-69
2021/05/29 05:05:32;;;;;;;3.67;2.10;;;;;;;;;;5070598;28;20452;-69
2021/05/29 05:07:58;;;;;;;1.93;1.50;;;;;;;;;;5071935;28;20426;-68
2021/05/29 05:10:24;;;;;;;2.67;1.00;;;;;;;;;;5053180;28;20385;-70
2021/05/29 05:12:50;;;;;;;1.93;1.60;;;;;;;;;;5053618;28;20438;-67
2021/05/29 05:15:16;;;;;;;2.97;1.20;;;;;;;;;;5071942;28;20398;-68
2021/05/29 05:17:42;;;;;;;2.93;2.20;;;;;;;;;;5053855;28;20421;-67
2021/05/29 05:20:09;;;;;;;4.97;1.60;;;;;;;;;;5053012;28;20508;-68
2021/05/29 05:22:35;;;;;;;6.53;2.23;;;;;;;;;;5063921;28;20486;-68
2021/05/29 05:25:01;;;;;;;10.17;2.70;;;;;;;;;;5051713;28;20385;-68
2021/05/29 05:27:27;;;;;;;1.73;1.27;;;;;;;;;;5051480;28;20443;-68
2021/05/29 05:29:53;;;;;;;5.03;2.17;;;;;;;;;;5032924;28;20783;-68
2021/05/29 05:32:19;;;;;;;1.00;0.90;;;;;;;;;;5033642;28;20412;-68
2021/05/29 05:34:45;;;;;;;6.40;1.60;;;;;;;;;;5051792;28;20414;-69
2021/05/29 05:37:11;;;;;;;5.90;2.70;;;;;;;;;;5033828;28;20386;-69
2021/05/29 05:39:37;;;;;;;1.17;1.03;;;;;;;;;;5050681;28;20407;-69
2021/05/29 05:42:04;;;;;;;1.50;1.03;;;;;;;;;;5051350;28;20908;-68
2021/05/29 05:44:30;;;;;;;1.40;1.30;;;;;;;;;;5051394;28;20718;-68
2021/05/29 05:46:56;;;;;;;4.73;1.67;;;;;;;;;;5051213;28;20398;-67
2021/05/29 05:49:23;;;;;;;3.27;1.33;;;;;;;;;;5066817;28;20426;-68
2021/05/29 05:51:49;;;;;;;1.93;1.23;;;;;;;;;;5071190;28;20809;-69
2021/05/29 05:54:15;;;;;;;6.27;3.20;;;;;;;;;;5071069;28;20397;-68
2021/05/29 05:56:41;;;;;;;1.93;0.93;;;;;;;;;;5071200;28;20390;-68
2021/05/29 05:59:07;;;;;;;6.43;1.47;;;;;;;;;;5070410;28;20394;-69
2021/05/29 06:01:33;;;;;;;2.50;2.20;;;;;;;;;;5070651;28;20396;-69
2021/05/29 06:03:59;;;;;;;1.63;1.23;;;;;;;;;;5053055;28;20434;-70
2021/05/29 06:06:25;;;;;;;1.40;1.17;;;;;;;;;;5069777;28;20502;-69
2021/05/29 06:08:52;;;;;;;3.03;1.83;;;;;;;;;;5071118;28;20512;-70
2021/05/29 06:11:18;;;;;;;2.50;2.10;;;;;;;;;;5070649;28;20791;-68
2021/05/29 06:21:44;;;;;;;1.70;0.90;;;;;;;;;;5051099;28;20521;-67
2021/05/29 06:24:12;;;;;;;3.63;3.30;;;;;;;;;;5051081;28;20456;-71
2021/05/29 06:26:38;;;;;;;6.53;1.63;;;;;;;;;;5051108;28;20464;-69
2021/05/29 06:29:05;;;;;;;1.67;1.10;;;;;;;;;;5050667;28;20429;-67
2021/05/29 06:31:31;;;;;;;1.73;1.07;;;;;;;;;;5050521;28;20433;-68
2021/05/29 06:33:57;;;;;;;3.23;2.03;;;;;;;;;;5050650;28;20378;-68
2021/05/29 06:36:23;;;;;;;4.93;1.63;;;;;;;;;;5050980;28;20374;-67
2021/05/29 06:38:49;;;;;;;2.20;1.60;;;;;;;;;;5051035;28;20852;-69
2021/05/29 06:41:15;;;;;;;2.97;1.77;;;;;;;;;;5049914;28;20469;-67
2021/05/29 06:43:41;;;;;;;1.83;1.10;;;;;;;;;;5050855;28;20409;-69
2021/05/29 06:46:06;;;;;;;4.30;1.70;;;;;;;;;;5050618;28;20418;-69
2021/05/29 06:48:32;;;;;;;6.67;1.93;;;;;;;;;;5050391;28;20429;-69
2021/05/29 06:50:58;;;;;;;3.43;1.37;;;;;;;;;;5050027;28;20374;-68
2021/05/29 06:53:34;;;;;;;1.57;1.43;;;;;;;;;;5050521;28;20915;-70
2021/05/29 06:58:51;;;;;;;13.27;3.10;;;;;;;;;;5050675;28;20392;-69
2021/05/29 07:01:22;;;;;;;3.37;1.53;;;;;;;;;;5049603;28;20811;-68
2021/05/29 07:03:48;;;;;;;1.40;0.67;;;;;;;;;;5050246;28;20513;-68
2021/05/29 07:06:14;;;;;;;1.93;1.07;;;;;;;;;;5048698;28;20394;-68
2021/05/29 07:08:40;;;;;;;1.27;1.17;;;;;;;;;;5049994;28;20443;-68
2021/05/29 07:11:07;;;;;;;1.73;1.27;;;;;;;;;;5031749;28;20375;-67
2021/05/29 07:13:33;;;;;;;1.43;1.03;;;;;;;;;;5050331;28;20411;-68
2021/05/29 07:15:59;;;;;;;1.07;0.97;;;;;;;;;;5050460;28;20965;-69
2021/05/29 07:18:31;;;;;;;2.30;0.77;;;;;;;;;;5050160;28;20440;-68
2021/05/29 07:20:57;;;;;;;0.80;0.50;;;;;;;;;;5049385;28;20473;-68
2021/05/29 07:23:23;;;;;;;1.00;0.70;;;;;;;;;;5050217;28;20774;-68
2021/05/29 07:25:49;;;;;;;4.77;1.80;;;;;;;;;;5052068;28;20390;-68
2021/05/29 07:28:16;;;;;;;2.23;0.80;;;;;;;;;;5053924;28;20540;-68
2021/05/29 07:30:42;;;;;;;3.90;0.80;;;;;;;;;;5053132;28;20402;-68
2021/05/29 07:33:08;;;;;;;1.13;1.00;;;;;;;;;;5053697;28;20397;-68
2021/05/29 07:35:34;;;;;;;3.13;0.67;;;;;;;;;;5053818;28;20481;-69
2021/05/29 07:38:00;;;;;;;1.53;1.20;;;;;;;;;;5053816;28;20960;-67
2021/05/29 07:40:26;;;;;;;2.43;1.07;;;;;;;;;;5052656;28;20400;-68
2021/05/29 07:42:52;;;;;;;0.80;0.53;;;;;;;;;;5053476;28;20909;-69
2021/05/29 07:45:18;;;;;;;3.57;1.63;;;;;;;;;;5036095;28;20422;-68
2021/05/29 07:47:44;;;;;;;1.80;1.07;;;;;;;;;;5053612;28;20424;-70
2021/05/29 07:50:11;;;;;;;0.83;0.80;;;;;;;;;;5035156;28;20366;-69
2021/05/29 07:52:37;;;;;;;1.83;1.37;;;;;;;;;;5053682;28;20405;-69
2021/05/29 07:55:04;;;;;;;3.47;2.00;;;;;;;;;;5053381;28;20369;-69
2021/05/29 07:57:31;;;;;;;0.93;0.77;;;;;;;;;;5053321;28;20509;-68
2021/05/29 07:59:57;;;;;;;2.17;1.30;;;;;;;;;;5052388;28;20500;-68
2021/05/29 08:02:24;;;;;;;1.77;1.10;;;;;;;;;;5053284;28;20443;-68
2021/05/29 08:04:50;;;;;;;1.63;1.03;;;;;;;;;;5051463;28;20370;-69
2021/05/29 08:07:16;;;;;;;1.57;1.33;;;;;;;;;;5035137;28;20454;-69
2021/05/29 08:09:42;;;;;;;1.57;1.03;;;;;;;;;;5052038;28;20405;-67
2021/05/29 08:12:08;;;;;;;1.60;1.03;;;;;;;;;;5052820;28;20826;-69
2021/05/29 08:14:35;;;;;;;1.13;0.90;;;;;;;;;;5052903;28;20385;-69
2021/05/29 08:17:01;;;;;;;1.50;0.80;;;;;;;;;;5053388;28;20883;-69
2021/05/29 08:19:27;;;;;;;1.10;1.00;;;;;;;;;;5052097;28;20400;-70
2021/05/29 08:21:53;;;;;;;1.97;0.87;;;;;;;;;;5053030;28;20495;-70
2021/05/29 08:24:19;;;;;;;1.23;1.03;;;;;;;;;;5052723;28;20378;-68
2021/05/29 08:26:45;;;;;;;3.57;2.00;;;;;;;;;;5053158;28;20462;-68
2021/05/29 08:29:14;;;;;;;3.33;1.03;;;;;;;;;;5051830;28;20429;-69
2021/05/29 08:31:42;;;;;;;2.47;1.57;;;;;;;;;;5052400;28;20941;-68
2021/05/29 08:34:09;;;;;;;3.80;1.23;;;;;;;;;;5052642;28;20398;-68
2021/05/29 08:36:36;;;;;;;2.70;1.63;;;;;;;;;;5051444;28;20860;-70
2021/05/29 08:39:05;;;;;;;3.87;1.70;;;;;;;;;;5053395;28;20915;-69
2021/05/29 08:41:31;;;;;;;4.77;1.03;;;;;;;;;;5052492;28;20401;-68
2021/05/29 08:43:57;;;;;;;1.20;1.03;;;;;;;;;;5052823;28;20399;-69
2021/05/29 08:46:24;;;;;;;3.03;1.27;;;;;;;;;;5052764;28;20406;-68
2021/05/29 08:48:52;;;;;;;1.10;1.00;;;;;;;;;;5052335;28;20893;-68
2021/05/29 08:51:18;;;;;;;3.87;1.37;;;;;;;;;;5051954;28;20397;-69
2021/05/29 08:53:45;;;;;;;1.73;1.63;;;;;;;;;;5052506;28;20469;-68
2021/05/29 08:56:12;;;;;;;1.83;1.00;;;;;;;;;;5052466;28;20759;-68
2021/05/29 08:58:38;;;;;;;0.70;0.50;;;;;;;;;;5052154;28;20399;-69
2021/05/29 09:01:05;;;;;;;1.10;1.00;;;;;;;;;;5051331;28;20384;-70
2021/05/29 09:03:42;;;;;;;0.97;0.80;;;;;;;;;;5052125;28;20760;-69
2021/05/29 09:06:09;;;;;;;1.17;1.07;;;;;;;;;;5051168;28;20796;-69
2021/05/29 09:08:35;;;;;;;1.10;0.77;;;;;;;;;;5052018;28;20447;-69
2021/05/29 09:11:03;;;;;;;1.80;0.73;;;;;;;;;;5051198;28;20427;-68
2021/05/29 09:13:30;;;;;;;1.53;0.93;;;;;;;;;;5052077;28;20418;-69
2021/05/29 09:15:58;;;;;;;2.10;1.33;;;;;;;;;;5052021;28;20366;-69
2021/05/29 09:18:27;;;;;;;0.80;0.63;;;;;;;;;;5051806;28;20784;-69
2021/05/29 09:20:53;;;;;;;0.70;0.50;;;;;;;;;;5051021;28;20426;-70
2021/05/29 09:23:19;;;;;;;0.90;0.60;;;;;;;;;;5051642;28;20393;-68
2021/05/29 09:25:53;;;;;;;1.20;1.00;;;;;;;;;;5051549;28;20408;-69
2021/05/29 09:28:23;;;;;;;3.03;1.47;;;;;;;;;;5051808;28;20425;-70
2021/05/29 09:30:51;;;;;;;5.60;1.90;;;;;;;;;;5050917;28;20374;-67
2021/05/29 09:33:21;;;;;;;2.10;1.83;;;;;;;;;;5051935;28;20852;-69
2021/05/29 09:35:49;;;;;;;2.30;1.87;;;;;;;;;;5052030;28;20395;-69
2021/05/29 09:38:15;;;;;;;1.47;0.80;;;;;;;;;;5051736;28;20401;-69
2021/05/29 09:40:49;;;;;;;3.73;2.30;;;;;;;;;;5050874;28;20796;-69
2021/05/29 09:43:15;;;;;;;1.83;1.10;;;;;;;;;;5051389;28;20469;-68
2021/05/29 09:45:41;;;;;;;1.23;1.03;;;;;;;;;;5051467;28;20848;-68
2021/05/29 09:48:20;;;;;;;4.10;1.10;;;;;;;;;;5051226;28;20784;-68
2021/05/29 09:51:04;;;;;;;2.80;1.17;;;;;;;;;;5051008;28;20415;-68
2021/05/29 09:53:32;;;;;;;2.00;1.53;;;;;;;;;;5051601;28;20435;-69
2021/05/29 09:55:58;;;;;;;2.33;1.40;;;;;;;;;;5051890;28;20369;-69
2021/05/29 09:58:43;;;;;;;4.10;1.37;;;;;;;;;;5051236;28;20444;-68
2021/05/29 10:01:09;;;;;;;1.10;1.00;;;;;;;;;;5050386;28;20607;-69
2021/05/29 10:03:47;;;;;;;1.80;1.00;;;;;;;;;;5066356;22;20490;-69
2021/05/29 10:06:13;;;;;;;3.10;1.80;;;;;;;;;;5049871;28;20410;-67
2021/05/29 10:08:39;;;;;;;1.10;0.80;;;;;;;;;;5050751;28;20772;-71
2021/05/29 10:11:05;;;;;;;2.27;1.20;;;;;;;;;;5048862;28;20475;-68
2021/05/29 10:13:31;;;;;;;1.40;0.90;;;;;;;;;;5050755;28;20397;-71
2021/05/29 10:15:57;;;;;;;1.73;0.83;;;;;;;;;;5051073;28;20403;-69
2021/05/29 10:18:24;;;;;;;2.93;2.20;;;;;;;;;;5050975;28;20434;-68
2021/05/29 10:20:51;;;;;;;6.27;1.93;;;;;;;;;;5050315;28;20765;-70
2021/05/29 10:23:17;;;;;;;1.50;0.93;;;;;;;;;;5049858;28;20503;-70
2021/05/29 10:25:43;;;;;;;1.80;0.83;;;;;;;;;;5051327;28;20417;-69
2021/05/29 10:28:09;;;;;;;2.10;1.27;;;;;;;;;;5051356;28;20969;-71
2021/05/29 10:30:36;;;;;;;2.30;1.63;;;;;;;;;;5050282;28;20388;-70
2021/05/29 10:33:15;;;;;;;2.37;1.67;;;;;;;;;;5051287;28;20801;-68
2021/05/29 10:35:43;;;;;;;1.23;1.10;;;;;;;;;;5050633;28;20407;-69
2021/05/29 10:38:09;;;;;;;1.43;1.30;;;;;;;;;;5051204;28;20410;-75
2021/05/29 10:40:38;;;;;;;2.00;0.97;;;;;;;;;;5053483;28;20547;-71
2021/05/29 10:43:08;;;;;;;2.13;1.73;;;;;;;;;;5051172;28;20461;-69
2021/05/29 10:45:35;;;;;;;3.17;1.47;;;;;;;;;;5050528;28;20377;-69
2021/05/29 10:48:14;;;;;;;2.23;2.03;;;;;;;;;;5050661;28;20449;-72
2021/05/29 10:53:54;;;;;;;2.17;1.97;;;;;;;;;;5050794;28;20781;-70
2021/05/29 10:56:21;;;;;;;2.40;1.43;;;;;;;;;;4969493;28;20501;-70
2021/05/29 10:59:09;;;;;;;1.43;1.07;;;;;;;;;;4969786;28;20908;-70
2021/05/29 11:01:44;;;;;;;1.20;1.00;;;;;;;;;;4973287;28;21020;-71
2021/05/29 11:04:13;;;;;;;1.60;1.10;;;;;;;;;;4973074;28;20990;-68
2021/05/29 11:06:41;;;;;;;2.30;1.27;;;;;;;;;;4972476;28;20427;-71
2021/05/29 11:09:08;;;;;;;3.83;1.00;;;;;;;;;;4972831;28;20462;-72
2021/05/29 11:14:18;;;;;;;2.53;1.37;;;;;;;;;;4973055;28;20998;-70
2021/05/29 11:19:13;;;;;;;5.33;1.57;;;;;;;;;;4971954;28;20470;-69
2021/05/29 11:21:58;;;;;;;1.57;1.47;;;;;;;;;;4972485;28;20810;-71
2021/05/29 11:24:24;;;;;;;1.20;1.00;;;;;;;;;;4972562;28;20413;-70
2021/05/29 11:26:50;;;;;;;3.57;1.37;;;;;;;;;;4956482;28;20411;-70
2021/05/29 11:29:16;;;;;;;1.10;1.00;;;;;;;;;;4952631;29;20488;-71
2021/05/29 11:31:46;;;;;;;1.20;1.10;;;;;;;;;;4953203;29;20393;-72
2021/05/29 11:34:12;;;;;;;1.53;1.10;;;;;;;;;;5022690;28;20959;-69
2021/05/29 11:36:40;;;;;;;1.47;1.27;;;;;;;;;;5034063;28;20381;-69
2021/05/29 11:39:07;;;;;;;1.20;1.10;;;;;;;;;;5033692;28;20487;-71
2021/05/29 11:41:33;;;;;;;1.40;0.97;;;;;;;;;;5042788;28;20420;-70
2021/05/29 11:43:59;;;;;;;1.40;1.30;;;;;;;;;;5035697;28;20891;-69
2021/05/29 11:46:26;;;;;;;2.80;1.97;;;;;;;;;;5033473;28;20436;-69
2021/05/29 11:48:55;;;;;;;2.60;2.27;;;;;;;;;;5033777;28;20521;-70
2021/05/29 11:51:21;;;;;;;1.57;1.33;;;;;;;;;;5032865;28;20423;-71
2021/05/29 11:53:51;;;;;;;3.63;1.13;;;;;;;;;;5033709;28;20390;-69
2021/05/29 11:56:21;;;;;;;1.77;1.67;;;;;;;;;;5033459;28;20386;-68
2021/05/29 11:58:52;;;;;;;2.37;1.70;;;;;;;;;;5033544;28;20408;-71
2021/05/29 12:01:20;;;;;;;2.20;2.00;;;;;;;;;;5031361;28;20898;-70
2021/05/29 12:03:47;;;;;;;2.07;1.53;;;;;;;;;;5033413;28;20797;-69
2021/05/29 12:06:13;;;;;;;3.10;1.80;;;;;;;;;;5032440;28;21025;-71
2021/05/29 12:08:51;;;;;;;1.77;1.40;;;;;;;;;;5034101;28;20905;-69
2021/05/29 12:11:17;;;;;;;2.13;1.80;;;;;;;;;;5031419;28;20411;-69
2021/05/29 12:13:54;;;;;;;2.70;1.80;;;;;;;;;;5033248;28;20423;-71
2021/05/29 12:16:24;;;;;;;2.30;1.70;;;;;;;;;;5032741;28;20763;-71
2021/05/29 12:18:50;;;;;;;2.80;2.20;;;;;;;;;;5032769;28;20998;-70
2021/05/29 12:21:16;;;;;;;2.07;1.67;;;;;;;;;;5032090;28;20491;-70
2021/05/29 12:23:52;;;;;;;5.27;3.30;;;;;;;;;;5032973;28;20831;-68
2021/05/29 12:26:19;;;;;;;3.27;1.73;;;;;;;;;;5043239;28;20548;-69
2021/05/29 12:28:45;;;;;;;1.53;1.43;;;;;;;;;;5052771;28;20447;-70
2021/05/29 12:31:11;;;;;;;2.77;1.73;;;;;;;;;;5051938;28;20818;-71
2021/05/29 12:33:37;;;;;;;5.30;1.87;;;;;;;;;;5052358;28;20504;-70
2021/05/29 12:36:04;;;;;;;2.10;1.90;;;;;;;;;;5052832;28;20391;-68
2021/05/29 12:38:30;;;;;;;2.23;1.33;;;;;;;;;;5052452;28;20395;-70
2021/05/29 12:41:10;;;;;;;3.63;2.00;;;;;;;;;;5051966;28;20761;-71
2021/05/29 12:43:37;;;;;;;2.40;2.20;;;;;;;;;;5052864;28;20430;-70
2021/05/29 12:46:03;;;;;;;1.80;1.27;;;;;;;;;;5052506;28;20444;-70
2021/05/29 12:48:28;;;;;;;1.90;1.33;;;;;;;;;;5052218;28;20655;-69
2021/05/29 12:53:35;;;;;;;1.63;1.37;;;;;;;;;;5052284;28;20440;-70
2021/05/29 12:56:06;;;;;;;3.13;1.40;;;;;;;;;;5052430;28;20402;-68
2021/05/29 12:58:32;;;;;;;1.70;0.90;;;;;;;;;;5052514;28;20399;-71
2021/05/29 13:09:11;;;;;;;4.07;1.53;;;;;;;;;;5051659;28;20458;-70
2021/05/29 13:11:37;;;;;;;1.80;1.40;;;;;;;;;;5051942;28;20402;-68
2021/05/29 13:14:09;;;;;;;3.20;1.90;;;;;;;;;;5048556;28;20784;-71
2021/05/29 13:16:47;;;;;;;2.97;2.30;;;;;;;;;;5035570;28;20895;-69
2021/05/29 13:19:13;;;;;;;4.17;1.93;;;;;;;;;;5045350;28;20469;-72
2021/05/29 13:21:49;;;;;;;5.43;2.20;;;;;;;;;;5051665;28;20399;-68
2021/05/29 13:24:35;;;;;;;5.10;2.50;;;;;;;;;;5031597;28;20412;-70
2021/05/29 13:27:01;;;;;;;3.10;2.07;;;;;;;;;;5031693;28;20396;-71
2021/05/29 13:29:27;;;;;;;2.40;1.63;;;;;;;;;;5030676;28;21064;-71
2021/05/29 13:31:53;;;;;;;4.87;3.00;;;;;;;;;;5044592;28;20373;-73
2021/05/29 13:34:19;;;;;;;3.37;2.90;;;;;;;;;;5051745;28;20395;-69
2021/05/29 13:36:45;;;;;;;3.60;2.10;;;;;;;;;;5051541;28;20957;-70
2021/05/29 13:39:11;;;;;;;1.97;1.20;;;;;;;;;;5049525;28;20915;-71
2021/05/29 13:41:37;;;;;;;1.50;1.40;;;;;;;;;;5051199;28;20449;-68
2021/05/29 13:44:03;;;;;;;3.30;1.50;;;;;;;;;;5051209;28;20898;-70
2021/05/29 13:46:29;;;;;;;2.17;1.50;;;;;;;;;;5051365;28;20490;-74
2021/05/29 13:48:55;;;;;;;3.60;2.57;;;;;;;;;;5037868;28;20534;-69
2021/05/29 13:51:21;;;;;;;2.90;1.73;;;;;;;;;;5028848;28;20413;-71
2021/05/29 13:53:49;;;;;;;1.63;1.53;;;;;;;;;;5031322;28;20469;-71
2021/05/29 13:56:14;;;;;;;3.57;2.60;;;;;;;;;;5031570;28;20412;-68
2021/05/29 13:58:40;;;;;;;3.83;2.37;;;;;;;;;;5032117;28;20446;-69
2021/05/29 14:01:06;;;;;;;2.93;2.40;;;;;;;;;;5031266;28;20412;-70
2021/05/29 14:03:32;;;;;;;3.00;1.80;;;;;;;;;;5031587;28;20464;-70
2021/05/29 14:05:58;;;;;;;2.17;1.53;;;;;;;;;;5030296;28;20435;-70
2021/05/29 14:08:24;;;;;;;2.00;1.80;;;;;;;;;;5031403;28;20454;-70
2021/05/29 14:10:50;;;;;;;2.00;1.57;;;;;;;;;;5030571;28;20403;-71
2021/05/29 14:13:18;;;;;;;2.23;1.80;;;;;;;;;;5031193;28;20420;-72
2021/05/29 14:15:43;;;;;;;4.33;1.77;;;;;;;;;;5031150;28;20470;-71
2021/05/29 14:18:09;;;;;;;1.53;1.37;;;;;;;;;;5031054;28;20811;-70
2021/05/29 14:20:35;;;;;;;1.83;1.70;;;;;;;;;;5029504;28;20415;-71
2021/05/29 14:23:01;;;;;;;2.30;1.43;;;;;;;;;;5043914;28;20426;-69
2021/05/29 14:25:27;;;;;;;3.73;2.10;;;;;;;;;;5050866;28;20772;-70
2021/05/29 14:27:53;;;;;;;2.27;1.93;;;;;;;;;;5052834;28;20865;-69
2021/05/29 14:30:19;;;;;;;2.80;1.53;;;;;;;;;;5051972;28;20402;-70
2021/05/29 14:32:45;;;;;;;2.63;1.80;;;;;;;;;;5050519;28;20430;-69
2021/05/29 14:35:11;;;;;;;2.17;1.87;;;;;;;;;;5049978;28;20414;-71
2021/05/29 14:37:37;;;;;;;2.27;1.67;;;;;;;;;;5050500;28;20517;-70
2021/05/29 14:40:04;;;;;;;2.40;1.97;;;;;;;;;;5049889;28;20518;-71
2021/05/29 14:42:31;;;;;;;4.13;2.47;;;;;;;;;;5050762;28;20422;-70
2021/05/29 14:44:57;;;;;;;2.20;1.40;;;;;;;;;;5050349;28;20431;-71
2021/05/29 14:47:23;;;;;;;2.53;1.40;;;;;;;;;;5049241;28;20411;-70
2021/05/29 14:49:49;;;;;;;3.30;2.27;;;;;;;;;;5048249;28;20425;-71
2021/05/29 14:52:15;;;;;;;3.03;1.73;;;;;;;;;;5050699;28;20557;-71
2021/05/29 14:54:41;;;;;;;2.20;1.73;;;;;;;;;;5050657;28;20399;-70
2021/05/29 14:57:07;;;;;;;5.00;2.97;;;;;;;;;;5050671;28;20374;-72
2021/05/29 14:59:33;;;;;;;1.83;1.60;;;;;;;;;;5049566;28;20748;-71
2021/05/29 15:02:03;;;;;;;3.57;2.03;;;;;;;;;;5050111;28;20510;-70
2021/05/29 15:04:31;;;;;;;2.03;1.43;;;;;;;;;;5049667;28;20403;-69
2021/05/29 15:06:57;;;;;;;2.20;1.30;;;;;;;;;;5050564;28;20403;-70
2021/05/29 15:09:23;;;;;;;2.43;1.90;;;;;;;;;;5049443;28;20584;-71
2021/05/29 15:11:49;;;;;;;2.17;1.60;;;;;;;;;;5050083;28;20486;-71
2021/05/29 15:14:17;;;;;;;2.23;1.20;;;;;;;;;;5050012;28;20482;-70